Hudson, Florida
Current Conditions -  °F | °C
As of 2:53 PM on Sunday 23 Nov 2014 (Local Time) from KBKV Reporting Station
Broken Clouds Broken Clouds  
Wind Chill: 85°   Ceiling: 3300
Heat Index: 90°   Visibility: 10mi
Dew Point: 71°   Wind: 20mph
Humidity: 63%   Direction: 180°S
Pressure: 29.87"   Gusts: 25mph
Location:  28.36°N, 82.69°W
Report Text: KBKV 231953Z 18017G22KT 10SM BKN033 BKN041 BKN048 29/22 A2987 RMK AO2 SLP113 T02940217
Loading
Personal Weather Stations






























Interactive Weather Map New forecast layout! Learn more

10-Day Weather Forecast

Advertisements
Track Severe Weather on mobile